Time;durP1;ratioP1;P1;durP2;ratioP2;P2;SDS_P1;SDS_P2;PMS_P1;PMS_P2;Temp;Humidity;BMP_temperature;BMP_pressure;BME280_temperature;BME280_humidity;BME280_pressure;Samples;Min_cycle;Max_cycle;Signal;HPM_P1;HPM_P2
2021/09/22 00:00:30;;;;;;;;;;;22.90;42.80;;;;;;1576162;74;770;-69
2021/09/22 00:02:31;;;;;;;;;;;22.90;42.80;;;;;;1574910;74;1125;-69
2021/09/22 00:04:34;;;;;;;;;;;22.90;42.90;;;;;;1574819;74;1946;-69
2021/09/22 00:06:36;;;;;;;;;;;22.80;42.70;;;;;;1572717;74;667;-69
2021/09/22 00:08:38;;;;;;;;;;;22.90;42.80;;;;;;1573368;74;707;-70
2021/09/22 00:10:39;;;;;;;;;;;22.80;42.70;;;;;;1583161;74;663;-70
2021/09/22 00:12:41;;;;;;;;;;;22.80;42.60;;;;;;1575621;74;1098;-70
2021/09/22 00:14:43;;;;;;;;;;;22.80;42.60;;;;;;1575654;74;703;-68
2021/09/22 00:16:45;;;;;;;;;;;22.80;42.70;;;;;;1567707;74;1067;-69
2021/09/22 00:18:47;;;;;;;;;;;22.80;42.60;;;;;;1575108;74;687;-67
2021/09/22 00:20:49;;;;;;;;;;;22.80;42.70;;;;;;1574498;75;711;-68
2021/09/22 00:22:51;;;;;;;;;;;22.80;42.80;;;;;;1574188;74;1106;-68
2021/09/22 00:24:53;;;;;;;;;;;22.80;42.80;;;;;;1575507;74;1931;-69
2021/09/22 00:26:55;;;;;;;;;;;22.90;43.00;;;;;;1569366;75;694;-69
2021/09/22 00:28:57;;;;;;;;;;;22.80;42.80;;;;;;1582034;74;706;-69
2021/09/22 00:30:59;;;;;;;;;;;22.80;42.80;;;;;;1575441;74;670;-70
2021/09/22 00:33:01;;;;;;;;;;;22.90;43.00;;;;;;1581263;74;1117;-70
2021/09/22 00:35:03;;;;;;;;;;;22.80;42.80;;;;;;1573470;74;739;-69
2021/09/22 00:37:06;;;;;;;;;;;22.80;42.80;;;;;;1577657;74;723;-69
2021/09/22 00:39:08;;;;;;;;;;;22.90;42.90;;;;;;1575315;74;718;-68
2021/09/22 00:41:10;;;;;;;;;;;22.80;42.80;;;;;;1583022;74;691;-68
2021/09/22 00:43:11;;;;;;;;;;;22.80;42.80;;;;;;1589441;72;225624;-57
2021/09/22 00:45:13;;;;;;;;;;;22.80;42.90;;;;;;1584157;73;1946;-55
2021/09/22 00:47:15;;;;;;;;;;;22.80;42.80;;;;;;1587938;74;741;-55
2021/09/22 00:49:17;;;;;;;;;;;22.80;42.80;;;;;;1588922;74;717;-56
2021/09/22 00:51:19;;;;;;;;;;;22.90;42.90;;;;;;1593308;74;750;-55
2021/09/22 00:53:21;;;;;;;;;;;22.90;42.90;;;;;;1563622;75;1080;-54
2021/09/22 00:55:23;;;;;;;;;;;22.80;42.80;;;;;;1585070;74;659;-56
2021/09/22 00:57:25;;;;;;;;;;;22.90;42.90;;;;;;1593534;74;778;-57
2021/09/22 00:59:27;;;;;;;;;;;22.80;42.80;;;;;;1593841;74;656;-55
2021/09/22 01:01:28;;;;;;;;;;;22.90;42.90;;;;;;1588849;74;742;-55
2021/09/22 01:03:30;;;;;;;;;;;22.90;42.90;;;;;;1582356;74;1116;-57
2021/09/22 01:05:32;;;;;;;;;;;22.90;42.90;;;;;;1592737;74;1941;-58
2021/09/22 01:07:34;;;;;;;;;;;22.90;42.90;;;;;;1588768;74;740;-57
2021/09/22 01:09:36;;;;;;;;;;;22.90;42.80;;;;;;1584869;74;707;-58
2021/09/22 01:11:39;;;;;;;;;;;22.90;42.80;;;;;;1582998;74;779;-58
2021/09/22 01:13:41;;;;;;;;;;;22.90;42.90;;;;;;1592773;74;1186;-58
2021/09/22 01:15:46;;;;;;;;;;;22.90;42.90;;;;;;1589093;74;858;-58
2021/09/22 01:17:48;;;;;;;;;;;22.80;42.80;;;;;;1582984;74;725;-57
2021/09/22 01:19:49;;;;;;;;;;;22.90;42.90;;;;;;1588679;74;684;-55
2021/09/22 01:21:52;;;;;;;;;;;22.90;42.90;;;;;;1580015;74;766;-57
2021/09/22 01:23:54;;;;;;;;;;;22.80;42.70;;;;;;1592698;74;1945;-58
2021/09/22 01:25:55;;;;;;;;;;;22.90;42.90;;;;;;1599633;74;685;-58
2021/09/22 01:27:59;;;;;;;;;;;22.90;42.90;;;;;;1586132;74;704;-57
2021/09/22 01:30:01;;;;;;;;;;;22.90;42.80;;;;;;1599102;74;717;-58
2021/09/22 01:32:03;;;;;;;;;;;22.90;42.80;;;;;;1592535;74;621;-56
2021/09/22 01:34:05;;;;;;;;;;;22.90;42.80;;;;;;1598336;74;1153;-56
2021/09/22 01:36:07;;;;;;;;;;;22.90;42.80;;;;;;1594176;74;726;-57
2021/09/22 01:38:10;;;;;;;;;;;22.80;42.60;;;;;;1547694;75;1300;-57
2021/09/22 01:40:12;;;;;;;;;;;22.80;42.60;;;;;;1574052;74;711;-57
2021/09/22 01:42:14;;;;;;;;;;;22.90;42.80;;;;;;1607018;74;746;-57
2021/09/22 01:44:16;;;;;;;;;;;22.80;42.70;;;;;;1584490;74;1961;-56
2021/09/22 01:46:18;;;;;;;;;;;22.80;42.70;;;;;;1611467;74;737;-57
2021/09/22 01:48:20;;;;;;;;;;;22.80;42.70;;;;;;1606980;74;652;-57
2021/09/22 01:50:22;;;;;;;;;;;22.80;42.70;;;;;;1576165;74;695;-56
2021/09/22 01:52:23;;;;;;;;;;;22.80;42.60;;;;;;1603588;74;703;-55
2021/09/22 01:54:25;;;;;;;;;;;22.80;42.60;;;;;;1585937;74;1109;-57
2021/09/22 01:56:27;;;;;;;;;;;22.80;42.60;;;;;;1610433;74;716;-57
2021/09/22 01:58:29;;;;;;;;;;;22.80;42.60;;;;;;1591950;73;775;-57
2021/09/22 02:00:31;;;;;;;;;;;22.80;42.60;;;;;;1581930;74;708;-57
2021/09/22 02:02:33;;;;;;;;;;;22.90;42.60;;;;;;1586724;74;722;-57
2021/09/22 02:04:35;;;;;;;;;;;22.80;42.50;;;;;;1588727;74;1942;-57
2021/09/22 02:06:37;;;;;;;;;;;22.80;42.50;;;;;;1598361;74;759;-57
2021/09/22 02:08:39;;;;;;;;;;;22.80;42.50;;;;;;1591730;74;775;-55
2021/09/22 02:10:41;;;;;;;;;;;22.70;42.50;;;;;;1576788;74;736;-56
2021/09/22 02:12:43;;;;;;;;;;;22.70;42.40;;;;;;1603023;74;747;-55
2021/09/22 02:14:45;;;;;;;;;;;22.80;42.40;;;;;;1584315;74;1124;-55
2021/09/22 02:16:47;;;;;;;;;;;22.80;42.30;;;;;;1601694;74;658;-57
2021/09/22 02:18:51;;;;;;;;;;;22.70;42.30;;;;;;1598841;74;742;-57
2021/09/22 02:20:52;;;;;;;;;;;22.80;42.40;;;;;;1603553;74;1690;-57
2021/09/22 02:22:54;;;;;;;;;;;22.80;42.40;;;;;;1597998;74;771;-57
2021/09/22 02:24:56;;;;;;;;;;;22.70;42.40;;;;;;1581330;74;1942;-55
2021/09/22 02:26:58;;;;;;;;;;;22.80;42.40;;;;;;1587898;74;743;-55
2021/09/22 02:28:59;;;;;;;;;;;22.70;42.40;;;;;;1595008;74;766;-56
2021/09/22 02:31:01;;;;;;;;;;;22.80;42.50;;;;;;1609215;74;767;-57
2021/09/22 02:33:03;;;;;;;;;;;22.80;42.50;;;;;;1582899;74;701;-57
2021/09/22 02:35:05;;;;;;;;;;;22.80;42.50;;;;;;1608917;74;1130;-58
2021/09/22 02:37:07;;;;;;;;;;;22.70;42.50;;;;;;1594692;74;728;-57
2021/09/22 02:39:09;;;;;;;;;;;22.70;42.40;;;;;;1599193;74;728;-58
2021/09/22 02:41:11;;;;;;;;;;;22.80;42.40;;;;;;1605892;74;676;-58
2021/09/22 02:43:13;;;;;;;;;;;22.90;42.50;;;;;;1601080;74;660;-57
2021/09/22 02:45:15;;;;;;;;;;;22.80;42.30;;;;;;1580245;74;1954;-55
2021/09/22 02:47:19;;;;;;;;;;;22.90;42.40;;;;;;1576366;74;769;-58
2021/09/22 02:49:20;;;;;;;;;;;22.80;42.20;;;;;;1597088;74;1671;-55
2021/09/22 02:51:22;;;;;;;;;;;22.90;42.30;;;;;;1603521;74;719;-57
2021/09/22 02:53:24;;;;;;;;;;;22.80;42.10;;;;;;1588036;74;1138;-57
2021/09/22 02:55:26;;;;;;;;;;;22.80;42.10;;;;;;1580046;74;815;-56
2021/09/22 02:57:28;;;;;;;;;;;22.90;42.30;;;;;;1585829;74;633;-57
2021/09/22 02:59:30;;;;;;;;;;;22.90;42.10;;;;;;1591675;74;779;-55
2021/09/22 03:01:32;;;;;;;;;;;22.90;42.10;;;;;;1593127;74;772;-58
2021/09/22 03:03:34;;;;;;;;;;;22.90;42.10;;;;;;1587473;74;1143;-59
2021/09/22 03:05:35;;;;;;;;;;;22.90;42.20;;;;;;1587295;74;1952;-58
2021/09/22 03:07:37;;;;;;;;;;;22.90;42.30;;;;;;1590389;74;725;-57
2021/09/22 03:09:39;;;;;;;;;;;22.90;42.20;;;;;;1592578;74;779;-58
2021/09/22 03:11:41;;;;;;;;;;;23.00;42.20;;;;;;1587200;74;762;-56
2021/09/22 03:13:43;;;;;;;;;;;23.00;42.30;;;;;;1609676;74;1126;-58
2021/09/22 03:15:45;;;;;;;;;;;23.00;42.20;;;;;;1604550;74;758;-57
2021/09/22 03:17:47;;;;;;;;;;;23.00;42.20;;;;;;1605758;74;732;-55
2021/09/22 03:19:49;;;;;;;;;;;23.10;42.30;;;;;;1599228;74;729;-56
2021/09/22 03:21:51;;;;;;;;;;;23.10;42.30;;;;;;1590015;74;808;-55
2021/09/22 03:23:53;;;;;;;;;;;23.00;42.40;;;;;;1575134;74;1134;-58
2021/09/22 03:25:55;;;;;;;;;;;23.00;42.50;;;;;;1577872;74;1938;-57
2021/09/22 03:27:56;;;;;;;;;;;23.00;42.60;;;;;;1601023;74;871;-57
2021/09/22 03:29:58;;;;;;;;;;;23.00;42.70;;;;;;1596729;74;682;-58
2021/09/22 03:32:00;;;;;;;;;;;23.00;42.70;;;;;;1587655;74;678;-57
2021/09/22 03:34:02;;;;;;;;;;;23.00;42.80;;;;;;1591000;74;1114;-55
2021/09/22 03:36:04;;;;;;;;;;;22.90;42.80;;;;;;1583968;74;728;-59
2021/09/22 03:38:06;;;;;;;;;;;23.00;43.00;;;;;;1584324;74;723;-59
2021/09/22 03:40:08;;;;;;;;;;;22.90;43.00;;;;;;1607546;74;681;-57
2021/09/22 03:42:10;;;;;;;;;;;23.00;43.10;;;;;;1590004;74;703;-57
2021/09/22 03:44:12;;;;;;;;;;;22.90;43.10;;;;;;1583632;74;1116;-57
2021/09/22 03:46:14;;;;;;;;;;;23.00;43.10;;;;;;1589042;74;1937;-57
2021/09/22 03:48:16;;;;;;;;;;;23.00;43.30;;;;;;1585186;74;791;-58
2021/09/22 03:50:18;;;;;;;;;;;22.90;43.30;;;;;;1608689;74;753;-56
2021/09/22 03:52:20;;;;;;;;;;;22.90;43.30;;;;;;1580890;74;788;-57
2021/09/22 03:54:22;;;;;;;;;;;22.90;43.40;;;;;;1585757;74;1149;-57
2021/09/22 03:56:24;;;;;;;;;;;23.00;43.30;;;;;;1596799;73;763;-58
2021/09/22 03:58:26;;;;;;;;;;;22.90;43.40;;;;;;1597694;74;647;-56
2021/09/22 04:00:28;;;;;;;;;;;22.90;43.40;;;;;;1600309;74;711;-55
2021/09/22 04:02:29;;;;;;;;;;;22.90;43.40;;;;;;1595475;74;755;-56
2021/09/22 04:04:31;;;;;;;;;;;22.90;43.40;;;;;;1593287;74;1118;-59
2021/09/22 04:06:33;;;;;;;;;;;22.90;43.50;;;;;;1601980;74;1947;-58
2021/09/22 04:08:35;;;;;;;;;;;22.90;43.50;;;;;;1610946;74;718;-58
2021/09/22 04:10:37;;;;;;;;;;;22.90;43.50;;;;;;1597754;74;763;-58
2021/09/22 04:12:39;;;;;;;;;;;22.90;43.50;;;;;;1593352;74;649;-56
2021/09/22 04:14:41;;;;;;;;;;;22.90;43.60;;;;;;1581715;74;1093;-58
2021/09/22 04:16:43;;;;;;;;;;;22.90;43.50;;;;;;1591043;74;663;-55
2021/09/22 04:18:44;;;;;;;;;;;22.90;43.60;;;;;;1586419;74;703;-59
2021/09/22 04:20:46;;;;;;;;;;;22.90;43.60;;;;;;1585612;74;700;-58
2021/09/22 04:22:48;;;;;;;;;;;22.90;43.60;;;;;;1585775;74;804;-58
2021/09/22 04:24:50;;;;;;;;;;;22.90;43.60;;;;;;1584313;74;1183;-58
2021/09/22 04:26:52;;;;;;;;;;;22.90;43.60;;;;;;1585926;74;1937;-58
2021/09/22 04:28:54;;;;;;;;;;;22.90;43.60;;;;;;1585397;74;775;-58
2021/09/22 04:30:56;;;;;;;;;;;22.90;43.60;;;;;;1600212;74;703;-58
2021/09/22 04:32:58;;;;;;;;;;;22.90;43.60;;;;;;1591056;74;698;-57
2021/09/22 04:35:01;;;;;;;;;;;22.90;43.70;;;;;;1593251;74;1141;-56
2021/09/22 04:37:03;;;;;;;;;;;22.90;43.70;;;;;;1603418;74;744;-58
2021/09/22 04:39:05;;;;;;;;;;;22.90;43.70;;;;;;1565909;74;767;-58
2021/09/22 04:41:07;;;;;;;;;;;22.90;43.70;;;;;;1592288;74;802;-58
2021/09/22 04:43:08;;;;;;;;;;;22.90;43.70;;;;;;1589196;74;656;-57
2021/09/22 04:45:10;;;;;;;;;;;22.80;43.60;;;;;;1595801;74;1952;-54
2021/09/22 04:47:12;;;;;;;;;;;22.90;43.70;;;;;;1605196;74;662;-55
2021/09/22 04:49:14;;;;;;;;;;;22.90;43.80;;;;;;1578521;74;720;-58
2021/09/22 04:51:16;;;;;;;;;;;22.90;43.80;;;;;;1586602;74;885;-55
2021/09/22 04:53:18;;;;;;;;;;;22.90;43.80;;;;;;1585688;74;812;-57
2021/09/22 04:55:20;;;;;;;;;;;22.80;43.60;;;;;;1586757;74;798;-59
2021/09/22 04:57:22;;;;;;;;;;;22.80;43.70;;;;;;1585177;74;726;-56
2021/09/22 04:59:23;;;;;;;;;;;22.80;43.80;;;;;;1600709;74;648;-55
2021/09/22 05:01:25;;;;;;;;;;;22.80;43.80;;;;;;1606977;74;809;-55
2021/09/22 05:03:28;;;;;;;;;;;22.90;43.60;;;;;;1589687;74;1108;-58
2021/09/22 05:05:29;;;;;;;;;;;22.80;43.30;;;;;;1593173;74;1948;-55
2021/09/22 05:07:31;;;;;;;;;;;22.90;43.20;;;;;;1574082;74;750;-57
2021/09/22 05:09:33;;;;;;;;;;;22.90;42.80;;;;;;1606743;74;768;-57
2021/09/22 05:11:36;;;;;;;;;;;22.90;42.60;;;;;;1604349;74;763;-56
2021/09/22 05:13:38;;;;;;;;;;;22.90;42.60;;;;;;1600438;74;1150;-57
2021/09/22 05:15:39;;;;;;;;;;;22.90;42.60;;;;;;1609690;74;773;-58
2021/09/22 05:17:41;;;;;;;;;;;23.00;42.20;;;;;;1592706;74;815;-56
2021/09/22 05:19:43;;;;;;;;;;;22.90;42.20;;;;;;1596816;74;718;-56
2021/09/22 05:21:45;;;;;;;;;;;22.90;41.90;;;;;;1586807;74;627;-55
2021/09/22 05:23:47;;;;;;;;;;;22.90;41.90;;;;;;1579416;74;1128;-57
2021/09/22 05:25:49;;;;;;;;;;;22.80;41.80;;;;;;1585675;74;1951;-55
2021/09/22 05:27:51;;;;;;;;;;;23.00;42.10;;;;;;1601323;74;658;-58
2021/09/22 05:29:53;;;;;;;;;;;22.80;42.00;;;;;;1608759;74;751;-57
2021/09/22 05:31:55;;;;;;;;;;;22.80;42.20;;;;;;1598553;74;752;-58
2021/09/22 05:33:57;;;;;;;;;;;22.80;42.30;;;;;;1578801;74;1275;-57
2021/09/22 05:35:58;;;;;;;;;;;22.70;42.20;;;;;;1570935;74;723;-57
2021/09/22 05:38:01;;;;;;;;;;;22.70;42.30;;;;;;1583047;74;729;-57
2021/09/22 05:40:04;;;;;;;;;;;22.70;42.30;;;;;;1604583;74;636;-57
2021/09/22 05:42:09;;;;;;;;;;;22.70;42.30;;;;;;1598294;74;719;-57
2021/09/22 05:44:11;;;;;;;;;;;22.70;42.30;;;;;;1603843;74;1176;-57
2021/09/22 05:46:13;;;;;;;;;;;22.70;42.30;;;;;;1582307;74;1946;-57
2021/09/22 05:48:15;;;;;;;;;;;22.70;42.30;;;;;;1596634;74;773;-58
2021/09/22 05:50:17;;;;;;;;;;;22.60;42.30;;;;;;1586456;74;810;-56
2021/09/22 05:52:20;;;;;;;;;;;22.60;42.40;;;;;;1603334;74;714;-56
2021/09/22 05:54:22;;;;;;;;;;;22.60;42.50;;;;;;1572732;74;1274;-58
2021/09/22 05:56:24;;;;;;;;;;;22.60;42.60;;;;;;1609989;74;720;-59
2021/09/22 05:58:26;;;;;;;;;;;22.60;42.60;;;;;;1587862;74;832;-58
2021/09/22 06:00:28;;;;;;;;;;;22.60;42.60;;;;;;1595088;74;697;-56
2021/09/22 06:02:29;;;;;;;;;;;22.60;42.70;;;;;;1583769;74;672;-56
2021/09/22 06:04:31;;;;;;;;;;;22.60;42.80;;;;;;1583127;74;1138;-55
2021/09/22 06:06:33;;;;;;;;;;;22.60;42.80;;;;;;1595670;74;1933;-59
2021/09/22 06:08:35;;;;;;;;;;;22.60;42.90;;;;;;1603498;74;743;-57
2021/09/22 06:10:37;;;;;;;;;;;22.50;42.90;;;;;;1600579;74;821;-59
2021/09/22 06:12:39;;;;;;;;;;;22.50;43.00;;;;;;1597494;74;720;-58
2021/09/22 06:14:41;;;;;;;;;;;22.60;43.10;;;;;;1603315;74;1142;-57
2021/09/22 06:16:43;;;;;;;;;;;22.60;43.10;;;;;;1601069;74;681;-54
2021/09/22 06:18:44;;;;;;;;;;;22.50;43.20;;;;;;1599926;74;768;-57
2021/09/22 06:20:47;;;;;;;;;;;22.60;43.20;;;;;;1583676;74;783;-55
2021/09/22 06:22:48;;;;;;;;;;;22.50;43.20;;;;;;1586078;74;766;-56
2021/09/22 06:24:51;;;;;;;;;;;22.60;43.30;;;;;;1583278;74;1154;-59
2021/09/22 06:26:53;;;;;;;;;;;22.60;43.40;;;;;;1590801;74;1933;-56
2021/09/22 06:28:55;;;;;;;;;;;22.60;43.40;;;;;;1586582;74;776;-56
2021/09/22 06:30:57;;;;;;;;;;;22.60;43.50;;;;;;1583447;74;787;-57
2021/09/22 06:32:59;;;;;;;;;;;22.60;43.60;;;;;;1583631;74;768;-58
2021/09/22 06:35:00;;;;;;;;;;;22.50;43.60;;;;;;1587339;74;1199;-58
2021/09/22 06:37:02;;;;;;;;;;;22.60;43.70;;;;;;1587858;74;781;-56
2021/09/22 06:39:06;;;;;;;;;;;22.60;43.70;;;;;;1587639;74;750;-57
2021/09/22 06:41:08;;;;;;;;;;;22.60;43.80;;;;;;1592736;74;692;-57
2021/09/22 06:43:10;;;;;;;;;;;22.60;43.80;;;;;;1587406;73;227512;-70
2021/09/22 06:45:11;;;;;;;;;;;22.50;43.90;;;;;;1542896;76;692;-70
2021/09/22 06:47:13;;;;;;;;;;;22.60;43.90;;;;;;1535347;75;1960;-71
2021/09/22 06:49:15;;;;;;;;;;;22.60;43.90;;;;;;1559766;75;721;-71
2021/09/22 06:51:18;;;;;;;;;;;22.60;44.00;;;;;;1547510;76;725;-68
2021/09/22 06:53:20;;;;;;;;;;;22.60;44.00;;;;;;1556362;76;1204;-71
2021/09/22 06:55:22;;;;;;;;;;;22.60;44.30;;;;;;1524191;76;751;-71
2021/09/22 06:57:23;;;;;;;;;;;22.60;44.30;;;;;;1534571;76;681;-70
2021/09/22 06:59:25;;;;;;;;;;;22.60;44.30;;;;;;1543726;76;703;-71
2021/09/22 07:01:27;;;;;;;;;;;22.60;44.30;;;;;;1532645;76;733;-71
2021/09/22 07:03:29;;;;;;;;;;;22.60;44.30;;;;;;1533095;77;1122;-71
2021/09/22 07:05:31;;;;;;;;;;;22.60;44.40;;;;;;1533085;76;720;-72
2021/09/22 07:07:33;;;;;;;;;;;22.60;44.40;;;;;;1532889;76;1938;-71
2021/09/22 07:09:35;;;;;;;;;;;22.60;44.40;;;;;;1523072;76;769;-70
2021/09/22 07:11:37;;;;;;;;;;;22.60;44.40;;;;;;1532597;76;786;-72
2021/09/22 07:13:38;;;;;;;;;;;22.60;44.50;;;;;;1531877;76;1092;-71
2021/09/22 07:15:41;;;;;;;;;;;22.60;44.60;;;;;;1532321;76;735;-70
2021/09/22 07:17:43;;;;;;;;;;;22.60;44.60;;;;;;1533774;76;635;-74
2021/09/22 07:19:45;;;;;;;;;;;22.60;44.60;;;;;;1531687;76;694;-70
2021/09/22 07:21:47;;;;;;;;;;;22.60;44.60;;;;;;1532416;76;732;-69
2021/09/22 07:23:49;;;;;;;;;;;22.60;44.60;;;;;;1549833;76;1086;-71
2021/09/22 07:25:51;;;;;;;;;;;22.70;44.70;;;;;;1536608;76;682;-71
2021/09/22 07:27:53;;;;;;;;;;;22.80;44.70;;;;;;1529179;76;1937;-71
2021/09/22 07:29:55;;;;;;;;;;;22.80;44.60;;;;;;1546124;76;832;-72
2021/09/22 07:31:57;;;;;;;;;;;22.80;44.60;;;;;;1532506;76;704;-70
2021/09/22 07:33:58;;;;;;;;;;;22.90;44.70;;;;;;1540469;76;1106;-70
2021/09/22 07:36:00;;;;;;;;;;;22.90;44.70;;;;;;1532173;77;760;-71
2021/09/22 07:38:02;;;;;;;;;;;22.80;44.40;;;;;;1530495;76;801;-68
2021/09/22 07:40:05;;;;;;;;;;;22.90;44.60;;;;;;1532917;76;730;-71
2021/09/22 07:42:11;;;;;;;;;;;22.90;44.40;;;;;;1531808;76;697;-71
2021/09/22 07:44:10;;;;;;;;;;;23.00;44.40;;;;;;1524663;76;1715;-71
2021/09/22 07:46:12;;;;;;;;;;;23.00;44.30;;;;;;1529844;76;1931;-72
2021/09/22 07:48:14;;;;;;;;;;;23.00;44.30;;;;;;1532244;77;759;-71
2021/09/22 07:50:16;;;;;;;;;;;23.10;44.40;;;;;;1532385;76;739;-72
2021/09/22 07:52:18;;;;;;;;;;;23.10;44.40;;;;;;1529464;76;792;-71
2021/09/22 07:54:20;;;;;;;;;;;23.10;44.30;;;;;;1545031;76;1117;-69
2021/09/22 07:56:22;;;;;;;;;;;23.10;44.20;;;;;;1528035;76;805;-71
2021/09/22 07:58:23;;;;;;;;;;;23.10;44.20;;;;;;1534625;76;720;-70
2021/09/22 08:00:25;;;;;;;;;;;23.20;44.20;;;;;;1541622;75;775;-71
2021/09/22 08:02:27;;;;;;;;;;;23.20;44.10;;;;;;1534264;76;1133;-71
2021/09/22 08:04:29;;;;;;;;;;;23.20;44.10;;;;;;1533423;76;727;-71
2021/09/22 08:06:31;;;;;;;;;;;23.30;44.20;;;;;;1532588;76;1930;-73
2021/09/22 08:08:33;;;;;;;;;;;23.20;44.10;;;;;;1533422;76;739;-70
2021/09/22 08:10:35;;;;;;;;;;;23.20;44.10;;;;;;1532790;76;726;-70
2021/09/22 08:12:37;;;;;;;;;;;23.30;44.10;;;;;;1531886;76;1177;-71
2021/09/22 08:14:39;;;;;;;;;;;23.30;44.10;;;;;;1530539;76;793;-70
2021/09/22 08:16:41;;;;;;;;;;;23.30;43.90;;;;;;1549913;76;777;-71
2021/09/22 08:18:46;;;;;;;;;;;23.20;43.80;;;;;;1532901;76;716;-70
2021/09/22 08:20:46;;;;;;;;;;;23.30;43.80;;;;;;1532160;76;1776;-70
2021/09/22 08:22:48;;;;;;;;;;;23.30;43.80;;;;;;1532560;76;1134;-74
2021/09/22 08:24:50;;;;;;;;;;;23.30;43.90;;;;;;1535558;76;770;-71
2021/09/22 08:26:56;;;;;;;;;;;23.20;43.80;;;;;;1527668;76;1930;-70
2021/09/22 08:28:55;;;;;;;;;;;23.20;43.80;;;;;;1532142;76;1052;-73
2021/09/22 08:30:57;;;;;;;;;;;23.20;43.70;;;;;;1532804;76;821;-70
2021/09/22 08:32:59;;;;;;;;;;;23.20;43.70;;;;;;1541455;76;1141;-71
2021/09/22 08:35:01;;;;;;;;;;;23.20;43.80;;;;;;1534208;76;645;-70
2021/09/22 08:37:04;;;;;;;;;;;23.20;43.80;;;;;;1531788;76;672;-72
2021/09/22 08:39:06;;;;;;;;;;;23.20;43.80;;;;;;1532968;76;724;-70
2021/09/22 08:41:08;;;;;;;;;;;23.20;43.80;;;;;;1532332;76;791;-70
2021/09/22 08:43:11;;;;;;;;;;;23.20;43.70;;;;;;1544064;76;1165;-70
2021/09/22 08:45:13;;;;;;;;;;;23.20;43.80;;;;;;1544795;76;805;-70
2021/09/22 08:47:15;;;;;;;;;;;23.20;43.80;;;;;;1531956;76;1924;-71
2021/09/22 08:49:17;;;;;;;;;;;23.20;43.80;;;;;;1532929;76;770;-70
2021/09/22 08:51:19;;;;;;;;;;;23.20;43.80;;;;;;1538560;76;775;-71
2021/09/22 08:53:20;;;;;;;;;;;23.20;43.80;;;;;;1525232;76;1151;-68
2021/09/22 08:55:22;;;;;;;;;;;23.20;43.80;;;;;;1525294;76;953;-69
2021/09/22 08:57:24;;;;;;;;;;;23.20;43.80;;;;;;1538450;76;809;-72
2021/09/22 08:59:26;;;;;;;;;;;23.20;43.80;;;;;;1534985;76;875;-73
2021/09/22 09:01:28;;;;;;;;;;;23.20;43.80;;;;;;1535884;76;747;-70
2021/09/22 09:03:33;;;;;;;;;;;23.20;43.90;;;;;;1532860;76;1157;-70
2021/09/22 09:05:35;;;;;;;;;;;23.20;43.90;;;;;;1531992;77;1757;-72
2021/09/22 09:07:38;;;;;;;;;;;23.20;43.90;;;;;;1537347;76;1952;-70
2021/09/22 09:09:42;;;;;;;;;;;23.20;43.80;;;;;;1535431;76;1750;-67
2021/09/22 09:11:44;;;;;;;;;;;23.30;43.90;;;;;;1539092;76;1924;-70
2021/09/22 09:13:47;;;;;;;;;;;23.30;43.90;;;;;;1532815;76;1150;-70
2021/09/22 09:15:49;;;;;;;;;;;23.30;43.90;;;;;;1539892;76;1852;-73
2021/09/22 09:17:58;;;;;;;;;;;23.30;43.90;;;;;;1516207;77;747;-70
2021/09/22 09:19:57;;;;;;;;;;;23.30;43.90;;;;;;1501694;77;1555;-70
2021/09/22 09:22:03;;;;;;;;;;;23.30;43.80;;;;;;1505962;79;714;-70
2021/09/22 09:24:05;;;;;;;;;;;23.30;43.80;;;;;;1505653;79;1160;-71
2021/09/22 09:26:07;;;;;;;;;;;23.30;43.80;;;;;;1506265;79;791;-72
2021/09/22 09:28:20;;;;;;;;;;;23.30;43.80;;;;;;1505350;79;1942;-71
2021/09/22 09:30:22;;;;;;;;;;;23.30;43.70;;;;;;1501140;79;1896;-71
2021/09/22 09:32:29;;;;;;;;;;;23.40;43.80;;;;;;1505331;79;760;-70
2021/09/22 09:34:31;;;;;;;;;;;23.30;43.70;;;;;;1506527;77;787;-71
2021/09/22 09:36:36;;;;;;;;;;;23.40;43.70;;;;;;1502276;79;762;-73
2021/09/22 09:38:38;;;;;;;;;;;23.30;43.70;;;;;;1502914;79;943;-71
2021/09/22 09:40:40;;;;;;;;;;;23.30;43.70;;;;;;1499303;79;737;-71
2021/09/22 09:42:42;;;;;;;;;;;23.40;43.70;;;;;;1506407;79;1178;-71
2021/09/22 09:44:44;;;;;;;;;;;23.40;43.70;;;;;;1506439;79;714;-70
2021/09/22 09:46:45;;;;;;;;;;;23.40;43.70;;;;;;1476889;80;1124;-71
2021/09/22 09:48:49;;;;;;;;;;;23.30;43.70;;;;;;1497245;79;1941;-74
2021/09/22 09:50:52;;;;;;;;;;;23.40;43.70;;;;;;1495089;79;1677;-70
2021/09/22 09:52:55;;;;;;;;;;;23.40;43.60;;;;;;1504374;79;1691;-70
2021/09/22 09:54:57;;;;;;;;;;;23.40;43.70;;;;;;1499025;79;679;-71
2021/09/22 09:57:12;;;;;;;;;;;23.30;43.60;;;;;;1504834;79;751;-70
2021/09/22 09:59:14;;;;;;;;;;;23.40;43.70;;;;;;1505922;79;802;-71
2021/09/22 10:01:19;;;;;;;;;;;23.40;43.70;;;;;;1506545;77;795;-69
2021/09/22 10:03:22;;;;;;;;;;;23.40;43.70;;;;;;1504551;79;1070;-71
2021/09/22 10:05:23;;;;;;;;;;;23.40;43.70;;;;;;1506151;77;738;-71
2021/09/22 10:07:26;;;;;;;;;;;23.30;43.60;;;;;;1502331;79;1955;-71
2021/09/22 10:09:28;;;;;;;;;;;23.30;43.70;;;;;;1506576;79;711;-70
2021/09/22 10:11:31;;;;;;;;;;;23.40;43.60;;;;;;1509869;77;711;-71
2021/09/22 10:13:33;;;;;;;;;;;23.40;43.60;;;;;;1505726;77;1144;-71
2021/09/22 10:15:35;;;;;;;;;;;23.40;43.70;;;;;;1506141;79;838;-71
2021/09/22 10:17:37;;;;;;;;;;;23.40;43.60;;;;;;1502626;79;716;-71
2021/09/22 10:19:39;;;;;;;;;;;23.30;43.70;;;;;;1506185;79;846;-70
2021/09/22 10:21:41;;;;;;;;;;;23.30;43.60;;;;;;1504216;77;787;-74
2021/09/22 10:23:43;;;;;;;;;;;23.30;43.70;;;;;;1497975;79;1118;-70
2021/09/22 10:25:46;;;;;;;;;;;23.30;43.70;;;;;;1506456;79;783;-70
2021/09/22 10:27:48;;;;;;;;;;;23.30;43.70;;;;;;1504875;79;1915;-71
2021/09/22 10:29:51;;;;;;;;;;;23.40;43.80;;;;;;1506199;79;755;-74
2021/09/22 10:31:53;;;;;;;;;;;23.30;43.70;;;;;;1505953;79;731;-72
2021/09/22 10:33:56;;;;;;;;;;;23.40;43.80;;;;;;1504993;79;1132;-70
2021/09/22 10:35:59;;;;;;;;;;;23.30;43.80;;;;;;1496778;79;677;-70
2021/09/22 10:38:01;;;;;;;;;;;23.30;43.80;;;;;;1506211;77;714;-71
2021/09/22 10:40:03;;;;;;;;;;;23.30;43.80;;;;;;1506233;79;742;-71
2021/09/22 10:42:07;;;;;;;;;;;23.30;43.90;;;;;;1505679;77;796;-71
2021/09/22 10:44:12;;;;;;;;;;;23.30;43.90;;;;;;1483280;79;1252;-70
2021/09/22 10:46:17;;;;;;;;;;;23.30;43.90;;;;;;1505904;79;798;-72
2021/09/22 10:48:20;;;;;;;;;;;23.30;43.90;;;;;;1495424;79;1932;-73
2021/09/22 10:50:42;;;;;;;;;;;23.30;43.90;;;;;;1506463;79;753;-70
2021/09/22 10:52:44;;;;;;;;;;;23.30;43.90;;;;;;1499579;79;1236;-71
2021/09/22 10:55:04;;;;;;;;;;;23.30;43.90;;;;;;1505995;79;758;-74
2021/09/22 10:57:06;;;;;;;;;;;23.30;43.90;;;;;;1504195;79;716;-73
2021/09/22 10:59:09;;;;;;;;;;;23.20;43.90;;;;;;1476338;80;1076;-70
2021/09/22 11:01:11;;;;;;;;;;;23.30;43.90;;;;;;1504548;79;735;-71
2021/09/22 11:03:14;;;;;;;;;;;23.30;43.90;;;;;;1505922;77;1140;-69
2021/09/22 11:05:29;;;;;;;;;;;23.30;44.00;;;;;;1505913;79;784;-69
2021/09/22 11:07:49;;;;;;;;;;;23.20;43.90;;;;;;1505922;79;1937;-70
2021/09/22 11:09:51;;;;;;;;;;;23.30;44.00;;;;;;1501502;77;774;-71
2021/09/22 11:12:01;;;;;;;;;;;23.30;44.00;;;;;;1506251;79;817;-73
2021/09/22 11:14:02;;;;;;;;;;;23.20;43.90;;;;;;1505285;77;1117;-71
2021/09/22 11:16:09;;;;;;;;;;;23.20;44.00;;;;;;1503960;79;749;-73
2021/09/22 11:18:10;;;;;;;;;;;23.30;44.10;;;;;;1505520;79;1746;-71
2021/09/22 11:20:12;;;;;;;;;;;23.30;44.10;;;;;;1505837;79;743;-71
2021/09/22 11:22:18;;;;;;;;;;;23.20;44.00;;;;;;1501515;79;806;-71
2021/09/22 11:24:22;;;;;;;;;;;23.20;44.00;;;;;;1505936;77;1081;-71
2021/09/22 11:26:24;;;;;;;;;;;23.20;44.10;;;;;;1506262;77;689;-71
2021/09/22 11:28:26;;;;;;;;;;;23.20;44.00;;;;;;1506682;79;1955;-71
2021/09/22 11:30:28;;;;;;;;;;;23.20;44.00;;;;;;1503681;79;797;-74
2021/09/22 11:32:40;;;;;;;;;;;23.20;44.10;;;;;;1503064;79;1113;-71
2021/09/22 11:34:42;;;;;;;;;;;23.30;44.20;;;;;;1506164;77;868;-71
2021/09/22 11:36:43;;;;;;;;;;;23.20;44.10;;;;;;1505942;79;675;-71
2021/09/22 11:38:45;;;;;;;;;;;23.20;44.20;;;;;;1505692;79;740;-71
2021/09/22 11:40:48;;;;;;;;;;;23.20;44.10;;;;;;1501824;77;787;-72
2021/09/22 11:42:54;;;;;;;;;;;23.20;44.20;;;;;;1496495;79;1152;-71
2021/09/22 11:44:57;;;;;;;;;;;23.20;44.20;;;;;;1500255;77;734;-71
2021/09/22 11:47:01;;;;;;;;;;;23.20;44.20;;;;;;1466508;80;807;-71
2021/09/22 11:49:03;;;;;;;;;;;23.20;44.20;;;;;;1505162;79;1934;-73
2021/09/22 11:51:07;;;;;;;;;;;23.20;44.20;;;;;;1499654;79;737;-73
2021/09/22 11:53:10;;;;;;;;;;;23.20;44.20;;;;;;1506505;79;1136;-70
2021/09/22 11:55:12;;;;;;;;;;;23.20;44.20;;;;;;1506078;79;781;-73
2021/09/22 11:57:15;;;;;;;;;;;23.20;44.20;;;;;;1506044;79;814;-74
2021/09/22 11:59:17;;;;;;;;;;;23.20;44.20;;;;;;1506076;79;799;-70
2021/09/22 12:01:18;;;;;;;;;;;23.20;44.20;;;;;;1506320;79;761;-71
2021/09/22 12:03:22;;;;;;;;;;;23.20;44.20;;;;;;1473907;80;1445;-72
2021/09/22 12:05:24;;;;;;;;;;;23.20;44.20;;;;;;1507138;77;744;-71
2021/09/22 12:07:30;;;;;;;;;;;23.20;44.30;;;;;;1506061;79;801;-71
2021/09/22 12:09:42;;;;;;;;;;;23.20;44.30;;;;;;1502226;79;1922;-71